sensor_id;sensor_type;location;lat;lon;timestamp;pressure;altitude;pressure_sealevel;temperature;humidity
3748;BME280;1889;50.058;8.688;2023-08-21T00:01:13;100734.26;;;25.89;71.21
3748;BME280;1889;50.058;8.688;2023-08-21T00:03:42;100733.57;;;25.93;70.93
3748;BME280;1889;50.058;8.688;2023-08-21T00:06:11;100738.31;;;25.89;71.07
3748;BME280;1889;50.058;8.688;2023-08-21T00:08:40;100732.33;;;25.91;70.93
3748;BME280;1889;50.058;8.688;2023-08-21T00:11:10;100732.70;;;25.92;70.94
3748;BME280;1889;50.058;8.688;2023-08-21T00:13:39;100729.52;;;25.93;71.03
3748;BME280;1889;50.058;8.688;2023-08-21T00:16:10;100737.19;;;25.73;71.77
3748;BME280;1889;50.058;8.688;2023-08-21T00:18:39;100730.34;;;25.75;71.73
3748;BME280;1889;50.058;8.688;2023-08-21T00:21:08;100727.79;;;25.79;71.44
3748;BME280;1889;50.058;8.688;2023-08-21T00:23:37;100735.87;;;25.79;71.48
3748;BME280;1889;50.058;8.688;2023-08-21T00:26:06;100735.40;;;25.79;71.52
3748;BME280;1889;50.058;8.688;2023-08-21T00:28:35;100737.41;;;25.83;71.49
3748;BME280;1889;50.058;8.688;2023-08-21T00:31:05;100737.99;;;25.81;71.42
3748;BME280;1889;50.058;8.688;2023-08-21T00:33:34;100732.84;;;25.78;71.35
3748;BME280;1889;50.058;8.688;2023-08-21T00:36:05;100735.03;;;25.66;71.90
3748;BME280;1889;50.058;8.688;2023-08-21T00:38:34;100732.06;;;25.63;72.09
3748;BME280;1889;50.058;8.688;2023-08-21T00:41:03;100729.50;;;25.29;73.57
3748;BME280;1889;50.058;8.688;2023-08-21T00:43:32;100724.11;;;25.42;72.98
3748;BME280;1889;50.058;8.688;2023-08-21T00:46:01;100727.03;;;25.52;72.48
3748;BME280;1889;50.058;8.688;2023-08-21T00:48:30;100727.27;;;25.54;72.25
3748;BME280;1889;50.058;8.688;2023-08-21T00:50:59;100725.44;;;25.55;72.14
3748;BME280;1889;50.058;8.688;2023-08-21T00:53:28;100722.40;;;25.54;72.08
3748;BME280;1889;50.058;8.688;2023-08-21T00:55:58;100723.56;;;25.50;72.38
3748;BME280;1889;50.058;8.688;2023-08-21T00:58:28;100720.59;;;25.47;72.48
3748;BME280;1889;50.058;8.688;2023-08-21T01:00:57;100719.63;;;25.48;72.45
3748;BME280;1889;50.058;8.688;2023-08-21T01:03:26;100720.01;;;25.49;72.52
3748;BME280;1889;50.058;8.688;2023-08-21T01:05:55;100720.11;;;25.47;72.55
3748;BME280;1889;50.058;8.688;2023-08-21T01:08:40;100713.98;;;25.45;72.64
3748;BME280;1889;50.058;8.688;2023-08-21T01:14:03;100722.66;;;25.43;72.71
3748;BME280;1889;50.058;8.688;2023-08-21T01:16:30;100718.23;;;25.42;72.72
3748;BME280;1889;50.058;8.688;2023-08-21T01:19:01;100720.92;;;25.42;72.65
3748;BME280;1889;50.058;8.688;2023-08-21T01:21:32;100721.79;;;25.43;72.58
3748;BME280;1889;50.058;8.688;2023-08-21T01:24:01;100720.55;;;25.41;72.60
3748;BME280;1889;50.058;8.688;2023-08-21T01:26:30;100720.16;;;25.40;72.82
3748;BME280;1889;50.058;8.688;2023-08-21T01:28:59;100734.08;;;25.34;73.15
3748;BME280;1889;50.058;8.688;2023-08-21T01:31:31;100733.31;;;25.32;73.10
3748;BME280;1889;50.058;8.688;2023-08-21T01:34:04;100739.08;;;25.33;72.97
3748;BME280;1889;50.058;8.688;2023-08-21T01:36:33;100734.89;;;25.29;73.22
3748;BME280;1889;50.058;8.688;2023-08-21T01:39:03;100739.03;;;25.28;73.24
3748;BME280;1889;50.058;8.688;2023-08-21T01:41:33;100735.67;;;25.24;73.49
3748;BME280;1889;50.058;8.688;2023-08-21T01:44:02;100741.29;;;25.21;73.64
3748;BME280;1889;50.058;8.688;2023-08-21T01:46:31;100739.27;;;25.18;73.65
3748;BME280;1889;50.058;8.688;2023-08-21T01:49:00;100741.20;;;25.16;73.72
3748;BME280;1889;50.058;8.688;2023-08-21T01:51:29;100737.74;;;25.14;73.81
3748;BME280;1889;50.058;8.688;2023-08-21T01:53:58;100742.78;;;25.13;74.04
3748;BME280;1889;50.058;8.688;2023-08-21T01:56:27;100739.80;;;25.10;74.08
3748;BME280;1889;50.058;8.688;2023-08-21T01:58:56;100740.86;;;25.07;74.10
3748;BME280;1889;50.058;8.688;2023-08-21T02:01:25;100744.52;;;25.06;74.10
3748;BME280;1889;50.058;8.688;2023-08-21T02:03:54;100745.00;;;25.06;74.24
3748;BME280;1889;50.058;8.688;2023-08-21T02:06:23;100738.59;;;25.01;74.28
3748;BME280;1889;50.058;8.688;2023-08-21T02:08:52;100745.14;;;24.97;74.45
3748;BME280;1889;50.058;8.688;2023-08-21T02:11:21;100743.44;;;24.96;74.68
3748;BME280;1889;50.058;8.688;2023-08-21T02:13:50;100744.02;;;24.94;74.92
3748;BME280;1889;50.058;8.688;2023-08-21T02:16:19;100744.98;;;24.93;74.96
3748;BME280;1889;50.058;8.688;2023-08-21T02:18:49;100742.06;;;24.89;74.96
3748;BME280;1889;50.058;8.688;2023-08-21T02:21:18;100744.02;;;24.87;74.98
3748;BME280;1889;50.058;8.688;2023-08-21T02:23:47;100744.12;;;24.86;74.96
3748;BME280;1889;50.058;8.688;2023-08-21T02:26:16;100743.58;;;24.81;75.01
3748;BME280;1889;50.058;8.688;2023-08-21T02:28:47;100742.33;;;24.79;75.13
3748;BME280;1889;50.058;8.688;2023-08-21T02:31:16;100743.96;;;24.75;75.57
3748;BME280;1889;50.058;8.688;2023-08-21T02:33:45;100744.83;;;24.75;75.76
3748;BME280;1889;50.058;8.688;2023-08-21T02:36:14;100751.17;;;24.74;75.89
3748;BME280;1889;50.058;8.688;2023-08-21T02:38:43;100746.27;;;24.73;75.90
3748;BME280;1889;50.058;8.688;2023-08-21T02:41:12;100748.09;;;24.73;75.83
3748;BME280;1889;50.058;8.688;2023-08-21T02:43:41;100749.95;;;24.73;75.73
3748;BME280;1889;50.058;8.688;2023-08-21T02:46:10;100750.53;;;24.70;75.78
3748;BME280;1889;50.058;8.688;2023-08-21T02:48:39;100751.87;;;24.70;75.82
3748;BME280;1889;50.058;8.688;2023-08-21T02:51:08;100749.19;;;24.70;75.82
3748;BME280;1889;50.058;8.688;2023-08-21T02:53:37;100749.28;;;24.69;75.88
3748;BME280;1889;50.058;8.688;2023-08-21T02:56:06;100747.64;;;24.66;75.78
3748;BME280;1889;50.058;8.688;2023-08-21T02:58:35;100749.50;;;24.59;75.95
3748;BME280;1889;50.058;8.688;2023-08-21T03:01:04;100741.52;;;24.57;75.97
3748;BME280;1889;50.058;8.688;2023-08-21T03:03:33;100746.32;;;24.59;75.95
3748;BME280;1889;50.058;8.688;2023-08-21T03:06:03;100745.94;;;24.58;75.84
3748;BME280;1889;50.058;8.688;2023-08-21T03:08:32;100744.20;;;24.57;75.73
3748;BME280;1889;50.058;8.688;2023-08-21T03:11:01;100742.98;;;24.56;75.64
3748;BME280;1889;50.058;8.688;2023-08-21T03:13:30;100744.20;;;24.57;75.44
3748;BME280;1889;50.058;8.688;2023-08-21T03:15:59;100740.39;;;24.54;75.41
3748;BME280;1889;50.058;8.688;2023-08-21T03:18:30;100748.08;;;24.53;75.31
3748;BME280;1889;50.058;8.688;2023-08-21T03:20:59;100741.45;;;24.52;75.44
3748;BME280;1889;50.058;8.688;2023-08-21T03:23:28;100746.05;;;24.50;75.62
3748;BME280;1889;50.058;8.688;2023-08-21T03:25:57;100748.75;;;24.50;75.67
3748;BME280;1889;50.058;8.688;2023-08-21T03:28:26;100748.87;;;24.48;75.64
3748;BME280;1889;50.058;8.688;2023-08-21T03:30:55;100750.22;;;24.48;75.55
3748;BME280;1889;50.058;8.688;2023-08-21T03:33:24;100750.80;;;24.46;75.71
3748;BME280;1889;50.058;8.688;2023-08-21T03:35:54;100749.16;;;24.44;75.85
3748;BME280;1889;50.058;8.688;2023-08-21T03:38:23;100753.67;;;24.43;75.87
3748;BME280;1889;50.058;8.688;2023-08-21T03:40:52;100757.71;;;24.43;75.98
3748;BME280;1889;50.058;8.688;2023-08-21T03:43:21;100751.55;;;24.41;75.90
3748;BME280;1889;50.058;8.688;2023-08-21T03:45:50;100750.12;;;24.43;75.57
3748;BME280;1889;50.058;8.688;2023-08-21T03:48:19;100748.99;;;24.40;75.57
3748;BME280;1889;50.058;8.688;2023-08-21T03:50:49;100750.05;;;24.37;75.81
3748;BME280;1889;50.058;8.688;2023-08-21T03:53:18;100759.17;;;24.34;75.78
3748;BME280;1889;50.058;8.688;2023-08-21T03:55:47;100754.27;;;24.34;75.82
3748;BME280;1889;50.058;8.688;2023-08-21T03:58:16;100752.05;;;24.33;75.80
3748;BME280;1889;50.058;8.688;2023-08-21T04:00:45;100754.88;;;24.32;75.90
3748;BME280;1889;50.058;8.688;2023-08-21T04:03:14;100758.52;;;24.31;76.11
3748;BME280;1889;50.058;8.688;2023-08-21T04:05:43;100755.35;;;24.31;76.20
3748;BME280;1889;50.058;8.688;2023-08-21T04:08:13;100762.74;;;24.28;76.44
3748;BME280;1889;50.058;8.688;2023-08-21T04:10:42;100765.91;;;24.27;76.58
3748;BME280;1889;50.058;8.688;2023-08-21T04:13:11;100772.25;;;24.26;76.45
3748;BME280;1889;50.058;8.688;2023-08-21T04:15:44;100764.27;;;24.25;76.56
3748;BME280;1889;50.058;8.688;2023-08-21T04:18:14;100767.56;;;24.23;76.65
3748;BME280;1889;50.058;8.688;2023-08-21T04:20:43;100770.35;;;24.21;76.90
3748;BME280;1889;50.058;8.688;2023-08-21T04:23:12;100772.80;;;24.17;76.99
3748;BME280;1889;50.058;8.688;2023-08-21T04:25:41;100769.85;;;24.15;76.96
3748;BME280;1889;50.058;8.688;2023-08-21T04:28:10;100773.11;;;24.13;77.02
3748;BME280;1889;50.058;8.688;2023-08-21T04:30:43;100766.95;;;24.11;77.17
3748;BME280;1889;50.058;8.688;2023-08-21T04:33:12;100767.17;;;24.08;77.29
3748;BME280;1889;50.058;8.688;2023-08-21T04:35:41;100771.86;;;24.04;77.15
3748;BME280;1889;50.058;8.688;2023-08-21T04:38:10;100774.64;;;24.03;77.12
3748;BME280;1889;50.058;8.688;2023-08-21T04:40:39;100776.68;;;23.99;77.25
3748;BME280;1889;50.058;8.688;2023-08-21T04:43:08;100774.17;;;23.96;77.33
3748;BME280;1889;50.058;8.688;2023-08-21T04:45:37;100774.65;;;23.95;77.51
3748;BME280;1889;50.058;8.688;2023-08-21T04:48:06;100776.47;;;23.95;77.62
3748;BME280;1889;50.058;8.688;2023-08-21T04:50:35;100779.07;;;23.96;77.72
3748;BME280;1889;50.058;8.688;2023-08-21T04:53:04;100783.41;;;23.99;77.87
3748;BME280;1889;50.058;8.688;2023-08-21T04:55:33;100780.72;;;23.99;77.89
3748;BME280;1889;50.058;8.688;2023-08-21T04:58:02;100774.34;;;24.00;77.75
3748;BME280;1889;50.058;8.688;2023-08-21T05:00:32;100779.73;;;24.00;77.83
3748;BME280;1889;50.058;8.688;2023-08-21T05:03:01;100783.97;;;23.97;78.02
3748;BME280;1889;50.058;8.688;2023-08-21T05:05:30;100788.48;;;23.96;78.23
3748;BME280;1889;50.058;8.688;2023-08-21T05:07:59;100782.72;;;23.95;78.31
3748;BME280;1889;50.058;8.688;2023-08-21T05:10:28;100787.53;;;23.98;77.99
3748;BME280;1889;50.058;8.688;2023-08-21T05:12:57;100788.48;;;23.96;77.95
3748;BME280;1889;50.058;8.688;2023-08-21T05:15:26;100786.84;;;23.94;78.06
3748;BME280;1889;50.058;8.688;2023-08-21T05:17:55;100789.53;;;23.94;78.29
3748;BME280;1889;50.058;8.688;2023-08-21T05:20:24;100791.56;;;23.98;78.46
3748;BME280;1889;50.058;8.688;2023-08-21T05:22:53;100795.03;;;24.00;78.33
3748;BME280;1889;50.058;8.688;2023-08-21T05:25:22;100799.33;;;24.02;77.95
3748;BME280;1889;50.058;8.688;2023-08-21T05:27:52;100796.37;;;24.07;77.63
3748;BME280;1889;50.058;8.688;2023-08-21T05:30:21;100799.80;;;24.09;77.60
3748;BME280;1889;50.058;8.688;2023-08-21T05:32:50;100802.88;;;24.10;77.58
3748;BME280;1889;50.058;8.688;2023-08-21T05:35:19;100804.70;;;24.16;77.33
3748;BME280;1889;50.058;8.688;2023-08-21T05:37:48;100806.05;;;24.16;77.18
3748;BME280;1889;50.058;8.688;2023-08-21T05:40:17;100805.95;;;24.18;77.23
3748;BME280;1889;50.058;8.688;2023-08-21T05:42:46;100812.92;;;24.22;77.28
3748;BME280;1889;50.058;8.688;2023-08-21T05:45:15;100808.89;;;24.22;76.99
3748;BME280;1889;50.058;8.688;2023-08-21T05:47:44;100815.88;;;24.24;76.82
3748;BME280;1889;50.058;8.688;2023-08-21T05:50:13;100815.52;;;24.23;76.95
3748;BME280;1889;50.058;8.688;2023-08-21T05:52:42;100814.92;;;24.25;77.06
3748;BME280;1889;50.058;8.688;2023-08-21T05:55:11;100816.17;;;24.27;77.19
3748;BME280;1889;50.058;8.688;2023-08-21T05:57:40;100820.80;;;24.32;77.14
3748;BME280;1889;50.058;8.688;2023-08-21T06:00:10;100827.31;;;24.35;77.06
3748;BME280;1889;50.058;8.688;2023-08-21T06:02:39;100824.63;;;24.35;77.09
3748;BME280;1889;50.058;8.688;2023-08-21T06:05:09;100818.30;;;24.29;77.75
3748;BME280;1889;50.058;8.688;2023-08-21T06:07:39;100825.22;;;24.40;77.42
3748;BME280;1889;50.058;8.688;2023-08-21T06:10:11;100823.55;;;24.52;76.64
3748;BME280;1889;50.058;8.688;2023-08-21T06:12:40;100826.05;;;24.62;75.92
3748;BME280;1889;50.058;8.688;2023-08-21T06:15:10;100821.27;;;24.39;75.83
3748;BME280;1889;50.058;8.688;2023-08-21T06:17:41;100829.55;;;24.21;76.61
3748;BME280;1889;50.058;8.688;2023-08-21T06:20:10;100828.25;;;24.20;76.17
3748;BME280;1889;50.058;8.688;2023-08-21T06:22:41;100826.75;;;24.37;76.16
3748;BME280;1889;50.058;8.688;2023-08-21T06:25:10;100823.76;;;24.34;75.62
3748;BME280;1889;50.058;8.688;2023-08-21T06:27:39;100824.62;;;24.00;77.09
3748;BME280;1889;50.058;8.688;2023-08-21T06:30:08;100824.41;;;24.10;77.48
3748;BME280;1889;50.058;8.688;2023-08-21T06:32:37;100823.28;;;24.35;76.73
3748;BME280;1889;50.058;8.688;2023-08-21T06:35:06;100821.16;;;24.54;76.26
3748;BME280;1889;50.058;8.688;2023-08-21T06:37:36;100822.48;;;24.61;76.20
3748;BME280;1889;50.058;8.688;2023-08-21T06:40:05;100823.27;;;24.56;75.71
3748;BME280;1889;50.058;8.688;2023-08-21T06:42:34;100824.88;;;24.59;75.97
3748;BME280;1889;50.058;8.688;2023-08-21T06:45:06;100828.02;;;24.80;75.11
3748;BME280;1889;50.058;8.688;2023-08-21T06:47:35;100834.23;;;24.53;75.41
3748;BME280;1889;50.058;8.688;2023-08-21T06:50:06;100838.06;;;24.49;75.33
3748;BME280;1889;50.058;8.688;2023-08-21T06:52:35;100833.14;;;24.70;75.07
3748;BME280;1889;50.058;8.688;2023-08-21T06:55:04;100831.66;;;24.86;74.12
3748;BME280;1889;50.058;8.688;2023-08-21T06:57:34;100829.39;;;24.73;73.90
3748;BME280;1889;50.058;8.688;2023-08-21T07:00:05;100831.27;;;24.85;73.74
3748;BME280;1889;50.058;8.688;2023-08-21T07:02:35;100833.94;;;24.99;73.55
3748;BME280;1889;50.058;8.688;2023-08-21T07:05:04;100833.78;;;25.15;73.20
3748;BME280;1889;50.058;8.688;2023-08-21T07:07:33;100826.63;;;25.28;72.83
3748;BME280;1889;50.058;8.688;2023-08-21T07:10:02;100822.69;;;25.26;73.05
3748;BME280;1889;50.058;8.688;2023-08-21T07:12:31;100829.61;;;25.23;73.10
3748;BME280;1889;50.058;8.688;2023-08-21T07:15:00;100824.64;;;25.17;72.71
3748;BME280;1889;50.058;8.688;2023-08-21T07:17:29;100830.77;;;25.26;72.98
3748;BME280;1889;50.058;8.688;2023-08-21T07:19:58;100821.16;;;25.42;72.65
3748;BME280;1889;50.058;8.688;2023-08-21T07:22:27;100824.00;;;25.46;72.87
3748;BME280;1889;50.058;8.688;2023-08-21T07:24:57;100820.05;;;25.52;72.54
3748;BME280;1889;50.058;8.688;2023-08-21T07:27:26;100822.52;;;25.55;72.29
3748;BME280;1889;50.058;8.688;2023-08-21T07:29:55;100826.25;;;25.66;71.94
3748;BME280;1889;50.058;8.688;2023-08-21T07:32:24;100829.53;;;25.44;72.48
3748;BME280;1889;50.058;8.688;2023-08-21T07:34:53;100824.28;;;25.36;72.69
3748;BME280;1889;50.058;8.688;2023-08-21T07:37:23;100825.10;;;25.43;73.73
3748;BME280;1889;50.058;8.688;2023-08-21T07:39:52;100825.72;;;25.74;72.19
3748;BME280;1889;50.058;8.688;2023-08-21T07:42:23;100822.53;;;25.74;72.34
3748;BME280;1889;50.058;8.688;2023-08-21T07:44:52;100818.46;;;25.42;73.04
3748;BME280;1889;50.058;8.688;2023-08-21T07:47:21;100819.72;;;25.56;73.06
3748;BME280;1889;50.058;8.688;2023-08-21T07:49:50;100817.83;;;25.71;72.24
3748;BME280;1889;50.058;8.688;2023-08-21T07:52:20;100824.98;;;25.84;72.06
3748;BME280;1889;50.058;8.688;2023-08-21T07:54:53;100817.62;;;25.87;71.81
3748;BME280;1889;50.058;8.688;2023-08-21T07:57:22;100814.11;;;26.04;71.48
3748;BME280;1889;50.058;8.688;2023-08-21T07:59:52;100819.34;;;26.13;71.00
3748;BME280;1889;50.058;8.688;2023-08-21T08:02:21;100818.20;;;26.22;70.90
3748;BME280;1889;50.058;8.688;2023-08-21T08:04:50;100817.83;;;26.21;70.47
3748;BME280;1889;50.058;8.688;2023-08-21T08:07:19;100820.98;;;26.28;70.38
3748;BME280;1889;50.058;8.688;2023-08-21T08:09:48;100817.63;;;26.37;70.29
3748;BME280;1889;50.058;8.688;2023-08-21T08:12:17;100822.25;;;26.48;69.92
3748;BME280;1889;50.058;8.688;2023-08-21T08:14:46;100817.99;;;26.51;69.87
3748;BME280;1889;50.058;8.688;2023-08-21T08:17:15;100815.81;;;26.43;70.38
3748;BME280;1889;50.058;8.688;2023-08-21T08:19:44;100818.78;;;26.58;70.19
3748;BME280;1889;50.058;8.688;2023-08-21T08:22:13;100814.30;;;26.70;69.82
3748;BME280;1889;50.058;8.688;2023-08-21T08:24:42;100815.89;;;26.67;69.46
3748;BME280;1889;50.058;8.688;2023-08-21T08:27:11;100812.86;;;26.77;69.61
3748;BME280;1889;50.058;8.688;2023-08-21T08:29:40;100814.89;;;26.86;69.47
3748;BME280;1889;50.058;8.688;2023-08-21T08:32:09;100816.44;;;26.90;69.17
3748;BME280;1889;50.058;8.688;2023-08-21T08:34:38;100817.91;;;26.94;69.27
3748;BME280;1889;50.058;8.688;2023-08-21T08:37:07;100816.47;;;27.02;69.23
3748;BME280;1889;50.058;8.688;2023-08-21T08:39:36;100814.04;;;27.04;68.76
3748;BME280;1889;50.058;8.688;2023-08-21T08:42:06;100815.28;;;27.06;68.69
3748;BME280;1889;50.058;8.688;2023-08-21T08:44:36;100815.52;;;27.08;68.49
3748;BME280;1889;50.058;8.688;2023-08-21T08:47:06;100817.34;;;27.02;69.07
3748;BME280;1889;50.058;8.688;2023-08-21T08:49:35;100812.02;;;27.19;68.58
3748;BME280;1889;50.058;8.688;2023-08-21T08:52:05;100812.89;;;27.25;68.42
3748;BME280;1889;50.058;8.688;2023-08-21T08:54:35;100808.12;;;27.28;68.57
3748;BME280;1889;50.058;8.688;2023-08-21T08:57:06;100804.19;;;27.32;68.72
3748;BME280;1889;50.058;8.688;2023-08-21T08:59:35;100802.02;;;27.38;68.52
3748;BME280;1889;50.058;8.688;2023-08-21T09:02:04;100805.22;;;27.43;68.16
3748;BME280;1889;50.058;8.688;2023-08-21T09:04:33;100805.75;;;27.48;68.19
3748;BME280;1889;50.058;8.688;2023-08-21T09:07:09;100808.30;;;27.49;68.02
3748;BME280;1889;50.058;8.688;2023-08-21T09:09:40;100806.45;;;27.39;67.82
3748;BME280;1889;50.058;8.688;2023-08-21T09:12:13;100804.18;;;27.27;68.31
3748;BME280;1889;50.058;8.688;2023-08-21T09:14:44;100797.09;;;27.37;68.39
3748;BME280;1889;50.058;8.688;2023-08-21T09:17:13;100800.56;;;27.45;68.02
3748;BME280;1889;50.058;8.688;2023-08-21T09:19:43;100796.89;;;27.51;68.02
3748;BME280;1889;50.058;8.688;2023-08-21T09:22:14;100799.66;;;27.62;67.49
3748;BME280;1889;50.058;8.688;2023-08-21T09:25:07;100790.08;;;27.69;67.30
3748;BME280;1889;50.058;8.688;2023-08-21T09:27:38;100790.08;;;27.75;67.18
3748;BME280;1889;50.058;8.688;2023-08-21T09:30:11;100790.45;;;27.82;66.99
3748;BME280;1889;50.058;8.688;2023-08-21T09:32:57;100791.09;;;27.85;66.71
3748;BME280;1889;50.058;8.688;2023-08-21T09:35:28;100789.02;;;27.89;66.66
3748;BME280;1889;50.058;8.688;2023-08-21T09:37:57;100789.87;;;27.95;66.66
3748;BME280;1889;50.058;8.688;2023-08-21T09:40:26;100786.42;;;27.93;66.39
3748;BME280;1889;50.058;8.688;2023-08-21T09:42:56;100782.73;;;27.99;66.07
3748;BME280;1889;50.058;8.688;2023-08-21T09:45:27;100779.17;;;27.88;65.15
3748;BME280;1889;50.058;8.688;2023-08-21T09:47:57;100776.58;;;27.86;66.47
3748;BME280;1889;50.058;8.688;2023-08-21T09:50:29;100779.16;;;27.93;65.97
3748;BME280;1889;50.058;8.688;2023-08-21T09:52:58;100774.50;;;27.95;66.56
3748;BME280;1889;50.058;8.688;2023-08-21T09:55:28;100775.95;;;27.99;65.97
3748;BME280;1889;50.058;8.688;2023-08-21T09:58:01;100776.72;;;28.13;65.97
3748;BME280;1889;50.058;8.688;2023-08-21T10:00:35;100773.05;;;28.19;65.05
3748;BME280;1889;50.058;8.688;2023-08-21T10:03:07;100776.51;;;28.21;63.50
3748;BME280;1889;50.058;8.688;2023-08-21T10:05:38;100779.69;;;28.26;62.87
3748;BME280;1889;50.058;8.688;2023-08-21T10:08:08;100780.03;;;28.38;63.22
3748;BME280;1889;50.058;8.688;2023-08-21T10:10:38;100779.54;;;28.50;62.82
3748;BME280;1889;50.058;8.688;2023-08-21T10:13:08;100775.83;;;28.57;62.29
3748;BME280;1889;50.058;8.688;2023-08-21T10:15:38;100773.38;;;28.59;61.91
3748;BME280;1889;50.058;8.688;2023-08-21T10:18:24;100769.89;;;28.63;62.08
3748;BME280;1889;50.058;8.688;2023-08-21T10:20:53;100774.92;;;28.73;61.37
3748;BME280;1889;50.058;8.688;2023-08-21T10:23:30;100774.19;;;28.71;60.19
3748;BME280;1889;50.058;8.688;2023-08-21T10:26:01;100772.34;;;28.71;59.39
3748;BME280;1889;50.058;8.688;2023-08-21T10:28:42;100766.31;;;28.79;59.63
3748;BME280;1889;50.058;8.688;2023-08-21T10:31:32;100764.22;;;28.82;59.25
3748;BME280;1889;50.058;8.688;2023-08-21T10:34:04;100765.05;;;28.89;58.23
3748;BME280;1889;50.058;8.688;2023-08-21T10:39:19;100760.55;;;29.04;56.66
3748;BME280;1889;50.058;8.688;2023-08-21T10:41:56;100761.66;;;29.07;55.02
3748;BME280;1889;50.058;8.688;2023-08-21T10:44:35;100756.81;;;29.16;55.30
3748;BME280;1889;50.058;8.688;2023-08-21T10:47:17;100757.64;;;29.22;55.30
3748;BME280;1889;50.058;8.688;2023-08-21T10:49:47;100759.73;;;29.25;55.28
3748;BME280;1889;50.058;8.688;2023-08-21T10:52:25;100755.13;;;29.31;54.76
3748;BME280;1889;50.058;8.688;2023-08-21T10:54:57;100755.73;;;29.40;54.48
3748;BME280;1889;50.058;8.688;2023-08-21T10:57:27;100756.10;;;29.41;53.86
3748;BME280;1889;50.058;8.688;2023-08-21T11:00:01;100752.85;;;29.47;53.83
3748;BME280;1889;50.058;8.688;2023-08-21T11:02:36;100745.52;;;29.58;53.42
3748;BME280;1889;50.058;8.688;2023-08-21T11:05:06;100746.88;;;29.58;54.31
3748;BME280;1889;50.058;8.688;2023-08-21T11:07:46;100743.13;;;29.59;53.86
3748;BME280;1889;50.058;8.688;2023-08-21T11:10:18;100744.49;;;29.59;53.28
3748;BME280;1889;50.058;8.688;2023-08-21T11:12:57;100741.16;;;29.77;53.13
3748;BME280;1889;50.058;8.688;2023-08-21T11:15:25;100742.02;;;29.92;52.76
3748;BME280;1889;50.058;8.688;2023-08-21T11:18:02;100744.50;;;30.11;52.97
3748;BME280;1889;50.058;8.688;2023-08-21T11:20:33;100742.69;;;30.21;53.03
3748;BME280;1889;50.058;8.688;2023-08-21T11:23:04;100737.02;;;30.18;53.05
3748;BME280;1889;50.058;8.688;2023-08-21T11:25:39;100732.35;;;30.30;52.93
3748;BME280;1889;50.058;8.688;2023-08-21T11:28:09;100734.23;;;30.39;53.34
3748;BME280;1889;50.058;8.688;2023-08-21T11:30:38;100732.22;;;30.41;52.53
3748;BME280;1889;50.058;8.688;2023-08-21T11:33:09;100736.82;;;30.50;52.45
3748;BME280;1889;50.058;8.688;2023-08-21T11:35:39;100730.94;;;30.60;52.45
3748;BME280;1889;50.058;8.688;2023-08-21T11:38:21;100740.32;;;30.62;51.70
3748;BME280;1889;50.058;8.688;2023-08-21T11:41:01;100739.39;;;30.67;51.17
3748;BME280;1889;50.058;8.688;2023-08-21T11:43:39;100739.34;;;30.73;50.34
3748;BME280;1889;50.058;8.688;2023-08-21T11:46:10;100740.97;;;30.45;49.32
3748;BME280;1889;50.058;8.688;2023-08-21T11:48:41;100737.48;;;30.48;49.28
3748;BME280;1889;50.058;8.688;2023-08-21T11:51:20;100734.23;;;30.73;49.79
3748;BME280;1889;50.058;8.688;2023-08-21T11:53:49;100726.46;;;30.94;49.70
3748;BME280;1889;50.058;8.688;2023-08-21T11:56:18;100729.14;;;31.09;49.40
3748;BME280;1889;50.058;8.688;2023-08-21T11:58:47;100730.14;;;31.18;47.88
3748;BME280;1889;50.058;8.688;2023-08-21T12:01:21;100717.48;;;31.13;45.95
3748;BME280;1889;50.058;8.688;2023-08-21T12:03:50;100719.66;;;31.23;45.92
3748;BME280;1889;50.058;8.688;2023-08-21T12:06:25;100721.23;;;31.44;46.61
3748;BME280;1889;50.058;8.688;2023-08-21T12:08:56;100717.64;;;31.44;45.47
3748;BME280;1889;50.058;8.688;2023-08-21T12:11:25;100713.56;;;31.44;44.14
3748;BME280;1889;50.058;8.688;2023-08-21T12:13:54;100716.52;;;31.37;43.53
3748;BME280;1889;50.058;8.688;2023-08-21T12:16:24;100716.59;;;31.55;44.26
3748;BME280;1889;50.058;8.688;2023-08-21T12:18:53;100709.66;;;31.66;43.56
3748;BME280;1889;50.058;8.688;2023-08-21T12:21:24;100712.37;;;31.56;39.87
3748;BME280;1889;50.058;8.688;2023-08-21T12:23:53;100710.14;;;31.56;40.04
3748;BME280;1889;50.058;8.688;2023-08-21T12:26:22;100709.00;;;31.58;40.18
3748;BME280;1889;50.058;8.688;2023-08-21T12:28:51;100701.84;;;31.67;40.47
3748;BME280;1889;50.058;8.688;2023-08-21T12:31:20;100696.40;;;31.67;40.42
3748;BME280;1889;50.058;8.688;2023-08-21T12:33:49;100700.56;;;31.84;41.02
3748;BME280;1889;50.058;8.688;2023-08-21T12:36:18;100700.31;;;31.78;40.25
3748;BME280;1889;50.058;8.688;2023-08-21T12:38:47;100696.73;;;31.77;41.12
3748;BME280;1889;50.058;8.688;2023-08-21T12:41:17;100697.48;;;31.97;41.30
3748;BME280;1889;50.058;8.688;2023-08-21T12:43:46;100691.88;;;32.12;42.31
3748;BME280;1889;50.058;8.688;2023-08-21T12:46:15;100693.71;;;32.08;40.55
3748;BME280;1889;50.058;8.688;2023-08-21T12:48:44;100687.80;;;32.12;41.24
3748;BME280;1889;50.058;8.688;2023-08-21T12:51:13;100687.27;;;32.23;41.11
3748;BME280;1889;50.058;8.688;2023-08-21T12:53:42;100686.89;;;32.17;39.41
3748;BME280;1889;50.058;8.688;2023-08-21T12:56:11;100690.06;;;32.03;39.90
3748;BME280;1889;50.058;8.688;2023-08-21T12:58:40;100689.52;;;32.13;40.46
3748;BME280;1889;50.058;8.688;2023-08-21T13:01:09;100684.61;;;32.03;40.23
3748;BME280;1889;50.058;8.688;2023-08-21T13:03:38;100677.87;;;32.07;40.54
3748;BME280;1889;50.058;8.688;2023-08-21T13:06:07;100681.50;;;31.98;40.18
3748;BME280;1889;50.058;8.688;2023-08-21T13:08:36;100683.25;;;32.03;40.49
3748;BME280;1889;50.058;8.688;2023-08-21T13:11:05;100683.61;;;32.04;40.15
3748;BME280;1889;50.058;8.688;2023-08-21T13:13:35;100678.16;;;32.04;39.85
3748;BME280;1889;50.058;8.688;2023-08-21T13:16:04;100668.69;;;32.08;40.05
3748;BME280;1889;50.058;8.688;2023-08-21T13:18:33;100671.66;;;32.15;39.90
3748;BME280;1889;50.058;8.688;2023-08-21T13:21:02;100671.72;;;32.19;39.84
3748;BME280;1889;50.058;8.688;2023-08-21T13:23:31;100670.56;;;32.21;39.75
3748;BME280;1889;50.058;8.688;2023-08-21T13:26:01;100667.05;;;32.25;40.09
3748;BME280;1889;50.058;8.688;2023-08-21T13:28:31;100666.50;;;32.12;39.63
3748;BME280;1889;50.058;8.688;2023-08-21T13:31:00;100662.36;;;32.17;40.16